Time,TemperatureF,DewpointF,PressureIn,WindDirection,WindDirectionDegrees,WindSpeedMPH,WindSpeedGustMPH,Humidity,HourlyPrecipIn,Conditions,Clouds,dailyrainin,SoftwareType,DateUTC
2013-12-27 00:07:00,50.9,25.0,30.16,NW,316,0.0,1.0,36,0.00,,,0.00,weatherlink.com 1.10,2013-12-27 07:07:00,
2013-12-27 00:22:00,48.3,24.0,30.15,NW,316,0.0,0.0,39,0.00,,,0.00,weatherlink.com 1.10,2013-12-27 07:22:00,
2013-12-27 00:37:00,47.7,24.0,30.15,NW,316,0.0,1.0,40,0.00,,,0.00,weatherlink.com 1.10,2013-12-27 07:37:00,
2013-12-27 00:52:00,48.5,24.0,30.15,NW,316,0.0,1.0,38,0.00,,,0.00,weatherlink.com 1.10,2013-12-27 07:52:00,
2013-12-27 01:07:00,47.2,24.0,30.15,NW,316,0.0,0.0,40,0.00,,,0.00,weatherlink.com 1.10,2013-12-27 08:07:00,
2013-12-27 01:22:00,46.4,25.0,30.15,NW,316,0.0,1.0,43,0.00,,,0.00,weatherlink.com 1.10,2013-12-27 08:22:00,
2013-12-27 01:37:00,45.9,24.0,30.15,NW,316,0.0,0.0,43,0.00,,,0.00,weatherlink.com 1.10,2013-12-27 08:37:00,
2013-12-27 01:52:00,45.3,24.0,30.15,NW,316,0.0,0.0,44,0.00,,,0.00,weatherlink.com 1.10,2013-12-27 08:52:00,
2013-12-27 02:07:00,47.9,23.0,30.15,NW,316,0.0,1.0,38,0.00,,,0.00,weatherlink.com 1.10,2013-12-27 09:07:00,
2013-12-27 02:22:00,47.8,23.0,30.15,NW,316,0.0,1.0,38,0.00,,,0.00,weatherlink.com 1.10,2013-12-27 09:22:00,
2013-12-27 02:38:00,48.6,23.0,30.15,NW,304,2.0,3.0,36,0.00,,,0.00,weatherlink.com 1.10,2013-12-27 09:38:00,
2013-12-27 02:53:00,49.8,22.0,30.15,WNW,298,0.0,1.0,34,0.00,,,0.00,weatherlink.com 1.10,2013-12-27 09:53:00,
2013-12-27 03:08:00,48.8,21.0,30.15,NNW,345,2.0,3.0,34,0.00,,,0.00,weatherlink.com 1.10,2013-12-27 10:08:00,
2013-12-27 03:23:00,53.5,19.0,30.14,West,280,0.0,7.0,26,0.00,,,0.00,weatherlink.com 1.10,2013-12-27 10:23:00,
2013-12-27 03:38:00,52.3,19.0,30.15,NW,307,0.0,3.0,27,0.00,,,0.00,weatherlink.com 1.10,2013-12-27 10:38:00,
2013-12-27 03:53:00,52.6,19.0,30.14,NNW,341,2.0,4.0,27,0.00,,,0.00,weatherlink.com 1.10,2013-12-27 10:53:00,
2013-12-27 04:08:00,53.9,19.0,30.15,NW,313,3.0,8.0,25,0.00,,,0.00,weatherlink.com 1.10,2013-12-27 11:08:00,
2013-12-27 04:23:00,53.3,19.0,30.14,NW,311,2.0,4.0,26,0.00,,,0.00,weatherlink.com 1.10,2013-12-27 11:23:00,
2013-12-27 04:38:00,52.5,18.0,30.14,NE,49,2.0,3.0,26,0.00,,,0.00,weatherlink.com 1.10,2013-12-27 11:38:00,
2013-12-27 04:53:00,50.5,20.0,30.14,SW,220,0.0,2.0,30,0.00,,,0.00,weatherlink.com 1.10,2013-12-27 11:53:00,
2013-12-27 05:08:00,50.1,20.0,30.14,WNW,287,0.0,1.0,31,0.00,,,0.00,weatherlink.com 1.10,2013-12-27 12:08:00,
2013-12-27 05:23:00,48.4,22.0,30.14,WNW,291,1.0,1.0,36,0.00,,,0.00,weatherlink.com 1.10,2013-12-27 12:23:00,
2013-12-27 05:38:00,46.1,23.0,30.14,WNW,288,0.0,1.0,41,0.00,,,0.00,weatherlink.com 1.10,2013-12-27 12:38:00,
2013-12-27 05:53:00,45.2,24.0,30.15,WNW,285,0.0,1.0,44,0.00,,,0.00,weatherlink.com 1.10,2013-12-27 12:53:00,
2013-12-27 06:08:00,44.0,26.0,30.15,WNW,298,0.0,2.0,49,0.00,,,0.00,weatherlink.com 1.10,2013-12-27 13:08:00,
2013-12-27 06:23:00,43.6,27.0,30.15,WNW,297,1.0,2.0,52,0.00,,,0.00,weatherlink.com 1.10,2013-12-27 13:23:00,
2013-12-27 06:38:00,42.5,27.0,30.16,WNW,297,0.0,1.0,55,0.00,,,0.00,weatherlink.com 1.10,2013-12-27 13:38:00,
2013-12-27 06:53:00,41.1,27.0,30.16,SW,235,0.0,0.0,58,0.00,,,0.00,weatherlink.com 1.10,2013-12-27 13:53:00,
2013-12-27 07:08:00,41.8,28.0,30.16,SW,236,0.0,1.0,59,0.00,,,0.00,weatherlink.com 1.10,2013-12-27 14:08:00,
2013-12-27 07:23:00,42.7,28.0,30.16,NNW,335,0.0,3.0,57,0.00,,,0.00,weatherlink.com 1.10,2013-12-27 14:23:00,
2013-12-27 07:38:00,43.7,27.0,30.16,NNW,329,0.0,2.0,53,0.00,,,0.00,weatherlink.com 1.10,2013-12-27 14:38:00,
2013-12-27 07:53:00,44.2,28.0,30.17,NNW,338,0.0,2.0,53,0.00,,,0.00,weatherlink.com 1.10,2013-12-27 14:53:00,
2013-12-27 08:08:00,44.7,29.0,30.18,WNW,297,2.0,7.0,54,0.00,,,0.00,weatherlink.com 1.10,2013-12-27 15:08:00,
2013-12-27 08:23:00,45.5,29.0,30.18,North,352,5.0,7.0,53,0.00,,,0.00,weatherlink.com 1.10,2013-12-27 15:23:00,
2013-12-27 08:38:00,47.2,29.0,30.18,NW,323,3.0,5.0,49,0.00,,,0.00,weatherlink.com 1.10,2013-12-27 15:38:00,
2013-12-27 08:53:00,48.6,29.0,30.19,NW,305,3.0,6.0,47,0.00,,,0.00,weatherlink.com 1.10,2013-12-27 15:53:00,
2013-12-27 09:08:00,49.6,30.0,30.19,NNW,340,4.0,4.0,47,0.00,,,0.00,weatherlink.com 1.10,2013-12-27 16:08:00,
2013-12-27 09:23:00,51.2,29.0,30.20,NNE,22,1.0,6.0,43,0.00,,,0.00,weatherlink.com 1.10,2013-12-27 16:23:00,
2013-12-27 09:38:00,53.0,29.0,30.19,NNE,20,5.0,7.0,40,0.00,,,0.00,weatherlink.com 1.10,2013-12-27 16:38:00,
2013-12-27 09:53:00,55.6,29.0,30.19,North,352,6.0,8.0,36,0.00,,,0.00,weatherlink.com 1.10,2013-12-27 16:53:00,
2013-12-27 10:08:00,57.7,27.0,30.19,NNE,22,8.0,11.0,31,0.00,,,0.00,weatherlink.com 1.10,2013-12-27 17:08:00,
2013-12-27 10:23:00,59.3,28.0,30.19,NNW,343,5.0,8.0,30,0.00,,,0.00,weatherlink.com 1.10,2013-12-27 17:23:00,
2013-12-27 10:39:00,60.4,29.0,30.19,NNE,23,7.0,9.0,31,0.00,,,0.00,weatherlink.com 1.10,2013-12-27 17:39:00,
2013-12-27 10:54:00,61.0,26.0,30.19,NNE,27,5.0,11.0,26,0.00,,,0.00,weatherlink.com 1.10,2013-12-27 17:54:00,
2013-12-27 11:09:00,62.1,25.0,30.19,NE,35,9.0,12.0,24,0.00,,,0.00,weatherlink.com 1.10,2013-12-27 18:09:00,
2013-12-27 11:24:00,63.2,25.0,30.18,NNE,30,6.0,10.0,23,0.00,,,0.00,weatherlink.com 1.10,2013-12-27 18:24:00,
2013-12-27 11:39:00,63.6,26.0,30.18,NNW,330,5.0,9.0,24,0.00,,,0.00,weatherlink.com 1.10,2013-12-27 18:39:00,
2013-12-27 11:54:00,64.4,28.0,30.18,NNW,347,5.0,8.0,25,0.00,,,0.00,weatherlink.com 1.10,2013-12-27 18:54:00,
2013-12-27 12:09:00,65.7,29.0,30.17,NW,323,3.0,9.0,25,0.00,,,0.00,weatherlink.com 1.10,2013-12-27 19:09:00,
2013-12-27 12:24:00,67.0,29.0,30.16,NNW,343,4.0,8.0,24,0.00,,,0.00,weatherlink.com 1.10,2013-12-27 19:24:00,
2013-12-27 12:39:00,68.2,29.0,30.15,West,270,3.0,8.0,23,0.00,,,0.00,weatherlink.com 1.10,2013-12-27 19:39:00,
2013-12-27 12:54:00,69.0,28.0,30.14,NNW,347,2.0,7.0,22,0.00,,,0.00,weatherlink.com 1.10,2013-12-27 19:54:00,
2013-12-27 13:09:00,69.4,28.0,30.14,NNE,12,2.0,6.0,21,0.00,,,0.00,weatherlink.com 1.10,2013-12-27 20:09:00,
2013-12-27 13:24:00,70.5,27.0,30.13,NNW,331,2.0,5.0,20,0.00,,,0.00,weatherlink.com 1.10,2013-12-27 20:24:00,
2013-12-27 13:39:00,71.6,26.0,30.13,North,353,3.0,5.0,18,0.00,,,0.00,weatherlink.com 1.10,2013-12-27 20:39:00,
2013-12-27 13:54:00,72.1,26.0,30.12,NW,323,2.0,6.0,18,0.00,,,0.00,weatherlink.com 1.10,2013-12-27 20:54:00,
2013-12-27 14:09:00,72.6,25.0,30.11,WNW,285,4.0,8.0,17,0.00,,,0.00,weatherlink.com 1.10,2013-12-27 21:09:00,
2013-12-27 14:24:00,72.8,24.0,30.10,NW,305,5.0,6.0,16,0.00,,,0.00,weatherlink.com 1.10,2013-12-27 21:24:00,
2013-12-27 14:39:00,73.2,21.0,30.09,NNW,341,2.0,7.0,14,0.00,,,0.00,weatherlink.com 1.10,2013-12-27 21:39:00,
2013-12-27 14:55:00,73.4,20.0,30.09,NNW,347,4.0,9.0,13,0.00,,,0.00,weatherlink.com 1.10,2013-12-27 21:55:00,
2013-12-27 15:10:00,73.7,22.0,30.08,NW,322,4.0,7.0,14,0.00,,,0.00,weatherlink.com 1.10,2013-12-27 22:10:00,
2013-12-27 15:25:00,74.0,23.0,30.08,WNW,293,3.0,7.0,15,0.00,,,0.00,weatherlink.com 1.10,2013-12-27 22:25:00,
2013-12-27 15:40:00,73.8,20.0,30.08,NNW,336,2.0,7.0,13,0.00,,,0.00,weatherlink.com 1.10,2013-12-27 22:40:00,
2013-12-27 15:55:00,73.9,20.0,30.07,NW,308,3.0,7.0,13,0.00,,,0.00,weatherlink.com 1.10,2013-12-27 22:55:00,
2013-12-27 16:10:00,73.8,22.0,30.07,WNW,293,2.0,6.0,14,0.00,,,0.00,weatherlink.com 1.10,2013-12-27 23:10:00,
2013-12-27 16:25:00,73.7,25.0,30.07,NW,307,4.0,5.0,16,0.00,,,0.00,weatherlink.com 1.10,2013-12-27 23:25:00,
2013-12-27 16:40:00,73.4,24.0,30.07,WNW,292,0.0,4.0,16,0.00,,,0.00,weatherlink.com 1.10,2013-12-27 23:40:00,
2013-12-27 16:55:00,72.2,23.0,30.07,NW,323,2.0,7.0,16,0.00,,,0.00,weatherlink.com 1.10,2013-12-27 23:55:00,
2013-12-27 17:10:00,71.1,24.0,30.06,NNE,20,2.0,4.0,17,0.00,,,0.00,weatherlink.com 1.10,2013-12-28 00:10:00,
2013-12-27 17:25:00,69.6,25.0,30.06,NW,307,2.0,4.0,19,0.00,,,0.00,weatherlink.com 1.10,2013-12-28 00:25:00,
2013-12-27 17:40:00,68.1,25.0,30.06,NNW,347,1.0,3.0,20,0.00,,,0.00,weatherlink.com 1.10,2013-12-28 00:40:00,
2013-12-27 17:55:00,67.2,25.0,30.06,NW,307,1.0,2.0,20,0.00,,,0.00,weatherlink.com 1.10,2013-12-28 00:55:00,
2013-12-27 18:10:00,65.7,25.0,30.07,NW,307,0.0,2.0,21,0.00,,,0.00,weatherlink.com 1.10,2013-12-28 01:10:00,
2013-12-27 18:25:00,64.5,25.0,30.07,NW,307,0.0,1.0,22,0.00,,,0.00,weatherlink.com 1.10,2013-12-28 01:25:00,
2013-12-27 18:40:00,62.7,24.0,30.07,NW,307,0.0,1.0,23,0.00,,,0.00,weatherlink.com 1.10,2013-12-28 01:40:00,
2013-12-27 18:55:00,62.4,23.0,30.07,North,359,2.0,2.0,22,0.00,,,0.00,weatherlink.com 1.10,2013-12-28 01:55:00,
2013-12-27 19:10:00,62.0,27.0,30.07,NNW,332,0.0,1.0,27,0.00,,,0.00,weatherlink.com 1.10,2013-12-28 02:10:00,
2013-12-27 19:25:00,59.8,26.0,30.08,WNW,283,1.0,1.0,28,0.00,,,0.00,weatherlink.com 1.10,2013-12-28 02:25:00,
2013-12-27 19:40:00,60.9,25.0,30.08,NW,325,1.0,4.0,25,0.00,,,0.00,weatherlink.com 1.10,2013-12-28 02:40:00,
2013-12-27 19:55:00,61.1,23.0,30.08,NW,326,2.0,4.0,23,0.00,,,0.00,weatherlink.com 1.10,2013-12-28 02:55:00,
2013-12-27 20:10:00,60.1,25.0,30.08,NW,315,0.0,2.0,26,0.00,,,0.00,weatherlink.com 1.10,2013-12-28 03:10:00,
2013-12-27 20:25:00,56.7,26.0,30.08,NW,315,0.0,0.0,31,0.00,,,0.00,weatherlink.com 1.10,2013-12-28 03:25:00,
2013-12-27 20:40:00,53.9,27.0,30.08,NW,314,0.0,1.0,35,0.00,,,0.00,weatherlink.com 1.10,2013-12-28 03:40:00,
2013-12-27 20:55:00,52.5,27.0,30.09,NW,315,0.0,0.0,38,0.00,,,0.00,weatherlink.com 1.10,2013-12-28 03:55:00,
2013-12-27 21:10:00,53.9,24.0,30.08,NW,314,0.0,1.0,31,0.00,,,0.00,weatherlink.com 1.10,2013-12-28 04:10:00,
2013-12-27 21:25:00,54.5,26.0,30.08,NW,315,0.0,0.0,34,0.00,,,0.00,weatherlink.com 1.10,2013-12-28 04:25:00,
2013-12-27 21:40:00,53.7,25.0,30.09,ESE,114,0.0,1.0,33,0.00,,,0.00,weatherlink.com 1.10,2013-12-28 04:40:00,
2013-12-27 21:55:00,55.2,24.0,30.09,ESE,115,0.0,1.0,30,0.00,,,0.00,weatherlink.com 1.10,2013-12-28 04:55:00,
2013-12-27 22:10:00,54.3,25.0,30.09,ESE,118,0.0,1.0,32,0.00,,,0.00,weatherlink.com 1.10,2013-12-28 05:10:00,
2013-12-27 22:25:00,55.0,25.0,30.09,ESE,117,0.0,1.0,31,0.00,,,0.00,weatherlink.com 1.10,2013-12-28 05:25:00,
2013-12-27 22:40:00,54.3,27.0,30.09,ESE,118,0.0,1.0,35,0.00,,,0.00,weatherlink.com 1.10,2013-12-28 05:40:00,
2013-12-27 22:55:00,53.0,26.0,30.08,WSW,245,0.0,0.0,35,0.00,,,0.00,weatherlink.com 1.10,2013-12-28 05:55:00,
2013-12-27 23:10:00,51.0,27.0,30.08,WSW,245,0.0,1.0,40,0.00,,,0.00,weatherlink.com 1.10,2013-12-28 06:10:00,
2013-12-27 23:25:00,51.2,26.0,30.08,WSW,245,1.0,1.0,38,0.00,,,0.00,weatherlink.com 1.10,2013-12-28 06:25:00,
2013-12-27 23:40:00,51.2,27.0,30.09,WSW,245,0.0,1.0,40,0.00,,,0.00,weatherlink.com 1.10,2013-12-28 06:40:00,
2013-12-27 23:55:00,48.3,29.0,30.09,SE,143,0.0,1.0,47,0.00,,,0.00,weatherlink.com 1.10,2013-12-28 06:55:00,